Time;durP1;ratioP1;P1;durP2;ratioP2;P2;SDS_P1;SDS_P2;PMS_P1;PMS_P2;Temp;Humidity;BMP_temperature;BMP_pressure;BME280_temperature;BME280_humidity;BME280_pressure;Samples;Min_cycle;Max_cycle;Signal;HPM_P1;HPM_P2
2023/03/31 00:01:40;;;;;;;7.90;2.58;;;;;;;;;;4990286;28;20022;-74
2023/03/31 00:04:07;;;;;;;7.57;1.77;;;;;;;;;;5007606;28;20052;-74
2023/03/31 00:06:36;;;;;;;4.78;1.90;;;;;;;;;;5003302;28;20042;-75
2023/03/31 00:09:07;;;;;;;5.68;2.78;;;;;;;;;;5004160;28;20038;-74
2023/03/31 00:11:33;;;;;;;3.55;0.98;;;;;;;;;;5007791;28;20543;-75
2023/03/31 00:13:59;;;;;;;4.45;1.60;;;;;;;;;;5007763;28;20109;-76
2023/03/31 00:16:25;;;;;;;5.57;2.20;;;;;;;;;;5007902;28;20022;-75
2023/03/31 00:18:51;;;;;;;5.72;2.00;;;;;;;;;;5006992;28;20030;-75
2023/03/31 00:21:32;;;;;;;4.00;1.60;;;;;;;;;;5007896;28;20372;-75
2023/03/31 00:24:01;;;;;;;7.05;4.50;;;;;;;;;;5007636;28;20033;-75
2023/03/31 00:26:28;;;;;;;4.88;1.88;;;;;;;;;;4988093;28;20031;-74
2023/03/31 00:28:54;;;;;;;7.00;2.75;;;;;;;;;;4987722;28;20049;-74
2023/03/31 00:31:21;;;;;;;7.90;3.58;;;;;;;;;;5007490;28;20332;-74
2023/03/31 00:33:47;;;;;;;9.20;2.47;;;;;;;;;;5007765;28;20049;-74
2023/03/31 00:36:20;;;;;;;5.80;2.20;;;;;;;;;;5005070;28;20097;-78
2023/03/31 00:38:46;;;;;;;8.20;2.50;;;;;;;;;;5003578;28;20053;-74
2023/03/31 00:41:12;;;;;;;7.90;1.83;;;;;;;;;;4991606;28;20022;-74
2023/03/31 00:43:39;;;;;;;9.35;2.55;;;;;;;;;;5002698;28;20050;-75
2023/03/31 00:46:06;;;;;;;7.63;2.53;;;;;;;;;;4974315;28;20512;-75
2023/03/31 00:48:32;;;;;;;7.30;1.33;;;;;;;;;;4992058;28;20508;-73
2023/03/31 00:50:59;;;;;;;6.68;1.45;;;;;;;;;;5004110;28;20033;-74
2023/03/31 00:53:29;;;;;;;5.93;1.80;;;;;;;;;;4993867;28;20382;-74
2023/03/31 00:55:57;;;;;;;3.42;1.50;;;;;;;;;;5007236;28;20475;-74
2023/03/31 00:58:27;;;;;;;7.70;1.73;;;;;;;;;;5007670;28;20037;-74
2023/03/31 01:00:54;;;;;;;3.78;1.20;;;;;;;;;;4990646;28;20046;-74
2023/03/31 01:03:24;;;;;;;4.47;2.65;;;;;;;;;;4996602;28;20494;-77
2023/03/31 01:05:53;;;;;;;5.35;1.85;;;;;;;;;;4999864;28;20038;-75
2023/03/31 01:08:23;;;;;;;8.77;2.47;;;;;;;;;;5009198;28;20037;-75
2023/03/31 01:10:51;;;;;;;4.13;1.27;;;;;;;;;;5010792;28;20074;-75
2023/03/31 01:13:18;;;;;;;7.55;1.60;;;;;;;;;;5006639;28;20365;-75
2023/03/31 01:15:44;;;;;;;9.57;3.72;;;;;;;;;;5000376;28;20046;-76
2023/03/31 01:18:11;;;;;;;4.15;1.52;;;;;;;;;;5010408;28;20026;-75
2023/03/31 01:20:56;;;;;;;5.60;1.80;;;;;;;;;;5010391;28;20422;-74
2023/03/31 01:23:31;;;;;;;7.00;2.58;;;;;;;;;;5011209;28;20030;-74
2023/03/31 01:25:57;;;;;;;6.15;1.40;;;;;;;;;;5011658;28;20025;-74
2023/03/31 01:28:40;;;;;;;5.90;2.42;;;;;;;;;;5010632;28;20163;-75
2023/03/31 01:31:21;;;;;;;8.75;1.50;;;;;;;;;;5003257;28;20113;-73
2023/03/31 01:33:47;;;;;;;;;;;;;;;;;;4986271;28;20030;-74
2023/03/31 01:36:20;;;;;;;5.05;1.48;;;;;;;;;;5004748;28;19906;-74
2023/03/31 01:38:48;;;;;;;3.88;1.88;;;;;;;;;;5009491;28;20384;-74
2023/03/31 01:41:14;;;;;;;8.70;2.70;;;;;;;;;;5010237;28;20033;-75
2023/03/31 01:43:46;;;;;;;6.40;2.88;;;;;;;;;;5010289;28;20037;-75
2023/03/31 01:46:33;;;;;;;5.05;1.90;;;;;;;;;;5010946;28;20117;-75
2023/03/31 01:48:59;;;;;;;5.50;1.45;;;;;;;;;;5009601;28;20026;-76
2023/03/31 01:51:31;;;;;;;7.35;1.52;;;;;;;;;;5010278;28;20022;-76
2023/03/31 01:54:00;;;;;;;4.90;2.40;;;;;;;;;;4993981;28;20088;-76
2023/03/31 01:56:33;;;;;;;5.72;1.80;;;;;;;;;;4973485;28;20555;-75
2023/03/31 01:59:01;;;;;;;6.13;1.45;;;;;;;;;;5002933;28;20022;-76
2023/03/31 02:01:28;;;;;;;5.68;2.00;;;;;;;;;;5003860;28;20083;-77
2023/03/31 02:04:06;;;;;;;10.00;2.22;;;;;;;;;;4997790;28;20026;-75
2023/03/31 02:06:35;;;;;;;9.00;2.10;;;;;;;;;;4991858;28;20534;-76
2023/03/31 02:09:03;;;;;;;10.23;2.42;;;;;;;;;;4996248;28;20038;-75
2023/03/31 02:11:30;;;;;;;5.65;1.60;;;;;;;;;;5004583;28;20022;-75
2023/03/31 02:14:01;;;;;;;7.22;3.13;;;;;;;;;;5009471;28;20097;-76
2023/03/31 02:16:29;;;;;;;6.35;1.90;;;;;;;;;;5009750;28;20025;-75
2023/03/31 02:19:01;;;;;;;8.07;2.20;;;;;;;;;;5008299;28;20101;-75
2023/03/31 02:21:31;;;;;;;8.68;2.08;;;;;;;;;;5009211;28;20105;-75
2023/03/31 02:23:59;;;;;;;8.30;1.90;;;;;;;;;;4997368;28;20112;-75
2023/03/31 02:26:28;;;;;;;5.57;1.77;;;;;;;;;;5003934;28;20034;-75
2023/03/31 02:28:54;;;;;;;9.48;2.70;;;;;;;;;;5008363;28;20022;-75
2023/03/31 02:31:23;;;;;;;4.70;1.98;;;;;;;;;;5008876;28;20022;-75
2023/03/31 02:33:49;;;;;;;9.13;1.90;;;;;;;;;;5009511;28;20028;-76
2023/03/31 02:36:15;;;;;;;8.80;1.90;;;;;;;;;;5009260;28;20026;-75
2023/03/31 02:38:44;;;;;;;5.80;1.95;;;;;;;;;;5008364;28;20022;-75
2023/03/31 02:41:10;;;;;;;7.18;1.63;;;;;;;;;;5009128;28;20026;-76
2023/03/31 02:43:36;;;;;;;7.63;4.03;;;;;;;;;;5009010;28;20017;-76
2023/03/31 02:46:02;;;;;;;7.15;1.60;;;;;;;;;;5008808;28;20022;-75
2023/03/31 02:48:30;;;;;;;6.10;2.13;;;;;;;;;;5008233;28;20029;-76
2023/03/31 02:51:07;;;;;;;9.85;2.38;;;;;;;;;;5008997;28;20036;-73
2023/03/31 02:53:33;;;;;;;11.23;2.67;;;;;;;;;;5009207;28;20022;-76
2023/03/31 02:56:08;;;;;;;8.43;2.60;;;;;;;;;;5009705;28;20116;-78
2023/03/31 02:58:43;;;;;;;5.50;2.40;;;;;;;;;;5005454;28;20054;-75
2023/03/31 03:01:15;;;;;;;4.78;2.13;;;;;;;;;;4993130;28;20024;-75
2023/03/31 03:03:45;;;;;;;8.10;3.53;;;;;;;;;;5008680;28;20097;-75
2023/03/31 03:06:12;;;;;;;6.38;1.80;;;;;;;;;;5008411;28;20022;-75
2023/03/31 03:08:57;;;;;;;6.18;2.15;;;;;;;;;;5007858;28;20087;-75
2023/03/31 03:11:32;;;;;;;9.65;2.58;;;;;;;;;;5008697;28;20018;-75
2023/03/31 03:13:58;;;;;;;9.48;1.85;;;;;;;;;;5008754;28;20030;-77
2023/03/31 03:16:26;;;;;;;6.60;1.77;;;;;;;;;;5008382;28;20040;-75
2023/03/31 03:18:59;;;;;;;4.65;1.23;;;;;;;;;;5005529;28;20491;-72
2023/03/31 03:21:25;;;;;;;3.40;1.10;;;;;;;;;;5011227;28;20079;-76
2023/03/31 03:23:51;;;;;;;8.77;2.40;;;;;;;;;;5010254;28;20026;-76
2023/03/31 03:26:22;;;;;;;7.53;2.13;;;;;;;;;;5022541;28;20038;-76
2023/03/31 03:28:49;;;;;;;7.15;2.08;;;;;;;;;;5019248;28;20032;-76
2023/03/31 03:31:15;;;;;;;4.60;1.73;;;;;;;;;;5017016;28;20018;-74
2023/03/31 03:33:41;;;;;;;8.18;1.73;;;;;;;;;;5009540;28;20034;-75
2023/03/31 03:36:08;;;;;;;7.57;1.80;;;;;;;;;;5008228;28;20439;-75
2023/03/31 03:38:34;;;;;;;5.93;1.85;;;;;;;;;;5007847;28;20026;-74
2023/03/31 03:41:00;;;;;;;10.13;2.55;;;;;;;;;;5008012;28;20345;-74
2023/03/31 03:43:26;;;;;;;10.82;2.55;;;;;;;;;;5008279;28;20030;-76
2023/03/31 03:45:52;;;;;;;5.65;1.63;;;;;;;;;;5008177;28;20022;-75
2023/03/31 03:48:18;;;;;;;7.80;2.20;;;;;;;;;;5006036;28;20247;-76
2023/03/31 03:50:45;;;;;;;8.13;1.80;;;;;;;;;;4990340;28;20026;-77
2023/03/31 03:53:12;;;;;;;11.07;1.70;;;;;;;;;;5009033;28;20033;-77
2023/03/31 03:55:37;;;;;;;6.75;2.42;;;;;;;;;;4990548;28;20103;-76
2023/03/31 03:58:04;;;;;;;9.80;2.10;;;;;;;;;;5007164;28;20022;-76
2023/03/31 04:00:30;;;;;;;8.07;1.73;;;;;;;;;;4989296;28;20034;-76
2023/03/31 04:02:56;;;;;;;7.50;2.03;;;;;;;;;;4988839;28;20071;-77
2023/03/31 04:05:22;;;;;;;8.30;1.83;;;;;;;;;;5008167;28;20392;-76
2023/03/31 04:07:48;;;;;;;4.63;2.05;;;;;;;;;;4992268;28;20031;-76
2023/03/31 04:10:14;;;;;;;8.95;2.83;;;;;;;;;;4988461;28;20026;-75
2023/03/31 04:12:40;;;;;;;9.32;2.20;;;;;;;;;;4987275;28;20109;-77
2023/03/31 04:15:06;;;;;;;8.13;1.90;;;;;;;;;;4990689;28;20106;-76
2023/03/31 04:17:33;;;;;;;8.07;1.95;;;;;;;;;;5007502;28;20022;-75
2023/03/31 04:20:04;;;;;;;5.32;1.90;;;;;;;;;;5007944;28;20495;-76
2023/03/31 04:22:34;;;;;;;;;;;;;;;;;;5008201;28;20117;-75
2023/03/31 04:25:01;;;;;;;6.20;1.92;;;;;;;;;;5007847;28;20375;-76
2023/03/31 04:27:27;;;;;;;9.93;2.42;;;;;;;;;;5006890;28;20439;-77
2023/03/31 04:29:53;;;;;;;5.85;1.73;;;;;;;;;;4990019;28;20037;-78
2023/03/31 04:32:20;;;;;;;7.97;2.38;;;;;;;;;;5010146;28;20449;-76
2023/03/31 04:34:47;;;;;;;6.20;1.83;;;;;;;;;;5010204;28;20022;-75
2023/03/31 04:37:13;;;;;;;10.35;2.25;;;;;;;;;;4995115;28;20030;-74
2023/03/31 04:39:39;;;;;;;10.55;2.85;;;;;;;;;;5011534;28;20029;-75
2023/03/31 04:42:05;;;;;;;7.75;2.55;;;;;;;;;;5010513;28;20464;-74
2023/03/31 04:44:31;;;;;;;10.00;2.58;;;;;;;;;;5010897;28;20066;-75
2023/03/31 04:46:57;;;;;;;9.15;2.28;;;;;;;;;;5010449;28;20180;-77
2023/03/31 04:49:23;;;;;;;11.57;2.55;;;;;;;;;;5010514;28;20097;-75
2023/03/31 04:51:50;;;;;;;8.07;2.78;;;;;;;;;;5010887;28;20104;-75
2023/03/31 04:54:16;;;;;;;11.75;2.03;;;;;;;;;;5010494;28;20014;-75
2023/03/31 04:56:42;;;;;;;6.20;1.48;;;;;;;;;;5010694;28;20018;-76
2023/03/31 04:59:08;;;;;;;9.85;3.03;;;;;;;;;;5002323;28;20029;-75
2023/03/31 05:01:34;;;;;;;17.27;3.40;;;;;;;;;;4981168;28;20034;-75
2023/03/31 05:04:00;;;;;;;8.68;2.28;;;;;;;;;;4982353;28;20523;-75
2023/03/31 05:06:26;;;;;;;7.38;2.03;;;;;;;;;;5001593;28;20069;-75
2023/03/31 05:08:52;;;;;;;9.73;2.38;;;;;;;;;;4990290;28;20053;-74
2023/03/31 05:11:18;;;;;;;6.50;2.00;;;;;;;;;;4978687;28;20129;-76
2023/03/31 05:13:45;;;;;;;10.27;2.55;;;;;;;;;;5009886;28;20022;-76
2023/03/31 05:16:13;;;;;;;10.18;2.35;;;;;;;;;;4992396;28;20029;-75
2023/03/31 05:18:39;;;;;;;5.53;1.63;;;;;;;;;;5010040;28;20017;-76
2023/03/31 05:21:13;;;;;;;6.47;1.38;;;;;;;;;;4991907;28;20018;-75
2023/03/31 05:23:39;;;;;;;12.82;3.13;;;;;;;;;;5000468;28;20029;-78
2023/03/31 05:26:06;;;;;;;5.43;1.90;;;;;;;;;;5003215;28;20034;-78
2023/03/31 05:28:32;;;;;;;6.70;2.17;;;;;;;;;;4994588;28;20484;-74
2023/03/31 05:31:00;;;;;;;8.38;2.92;;;;;;;;;;4995860;28;20085;-73
2023/03/31 05:33:32;;;;;;;7.57;2.40;;;;;;;;;;4998208;28;20460;-78
2023/03/31 05:35:59;;;;;;;6.28;1.67;;;;;;;;;;5004138;28;20518;-75
2023/03/31 05:38:27;;;;;;;8.10;2.13;;;;;;;;;;4995800;28;20030;-75
2023/03/31 05:40:54;;;;;;;6.47;2.13;;;;;;;;;;5008874;28;20026;-75
2023/03/31 05:43:20;;;;;;;7.00;1.60;;;;;;;;;;5011899;28;20018;-76
2023/03/31 05:45:46;;;;;;;9.25;2.13;;;;;;;;;;5013497;28;20026;-74
2023/03/31 05:48:12;;;;;;;8.02;1.90;;;;;;;;;;5011508;28;20034;-76
2023/03/31 05:50:38;;;;;;;7.38;2.22;;;;;;;;;;5012053;28;20026;-75
2023/03/31 05:53:04;;;;;;;6.40;1.77;;;;;;;;;;5003986;28;20030;-75
2023/03/31 05:55:30;;;;;;;6.28;2.22;;;;;;;;;;4992046;28;20037;-77
2023/03/31 05:57:56;;;;;;;8.68;1.85;;;;;;;;;;4987978;28;20082;-76
2023/03/31 06:00:22;;;;;;;7.68;2.60;;;;;;;;;;4996473;28;20034;-74
2023/03/31 06:02:48;;;;;;;10.80;2.60;;;;;;;;;;5001216;28;20048;-76
2023/03/31 06:05:14;;;;;;;5.95;1.92;;;;;;;;;;4993096;28;20021;-76
2023/03/31 06:07:40;;;;;;;5.97;2.38;;;;;;;;;;5000008;28;20034;-76
2023/03/31 06:10:09;;;;;;;8.43;2.20;;;;;;;;;;5000762;28;20038;-75
2023/03/31 06:12:35;;;;;;;7.70;1.77;;;;;;;;;;4991579;28;20083;-76
2023/03/31 06:15:01;;;;;;;9.43;2.22;;;;;;;;;;5005982;28;20022;-76
2023/03/31 06:17:27;;;;;;;5.10;1.27;;;;;;;;;;4990625;28;20035;-75
2023/03/31 06:19:53;;;;;;;4.35;1.48;;;;;;;;;;5001970;28;20034;-76
2023/03/31 06:22:19;;;;;;;7.55;1.75;;;;;;;;;;4996668;28;20034;-76
2023/03/31 06:24:48;;;;;;;5.85;1.60;;;;;;;;;;5007736;28;20419;-73
2023/03/31 06:27:14;;;;;;;5.63;1.42;;;;;;;;;;5010155;28;20040;-75
2023/03/31 06:29:40;;;;;;;7.30;1.80;;;;;;;;;;5011355;28;20026;-73
2023/03/31 06:32:06;;;;;;;3.58;1.25;;;;;;;;;;5007403;28;20109;-75
2023/03/31 06:34:32;;;;;;;5.80;1.63;;;;;;;;;;4992525;28;20080;-75
2023/03/31 06:36:58;;;;;;;8.20;2.17;;;;;;;;;;5010811;28;20105;-73
2023/03/31 06:39:24;;;;;;;5.13;1.67;;;;;;;;;;5011231;28;20148;-76
2023/03/31 06:41:50;;;;;;;5.07;1.38;;;;;;;;;;5000526;28;20096;-76
2023/03/31 06:44:18;;;;;;;8.93;1.85;;;;;;;;;;5006608;28;20026;-76
2023/03/31 06:46:44;;;;;;;5.35;1.23;;;;;;;;;;5013533;28;20095;-76
2023/03/31 06:49:10;;;;;;;2.47;1.02;;;;;;;;;;4995527;28;20046;-77
2023/03/31 06:51:36;;;;;;;5.13;2.25;;;;;;;;;;5010341;28;20026;-76
2023/03/31 06:54:02;;;;;;;8.98;1.88;;;;;;;;;;5011509;28;20075;-76
2023/03/31 06:56:31;;;;;;;6.97;2.10;;;;;;;;;;5010525;28;20022;-74
2023/03/31 06:58:57;;;;;;;5.68;1.90;;;;;;;;;;5008861;28;20101;-76
2023/03/31 07:01:23;;;;;;;4.47;1.98;;;;;;;;;;5010338;28;20042;-74
2023/03/31 07:03:49;;;;;;;7.38;2.22;;;;;;;;;;5009793;28;20029;-75
2023/03/31 07:06:15;;;;;;;4.28;1.40;;;;;;;;;;5006969;28;20026;-75
2023/03/31 07:08:41;;;;;;;6.88;2.20;;;;;;;;;;5007849;28;20105;-74
2023/03/31 07:11:07;;;;;;;6.32;2.50;;;;;;;;;;5008464;28;20078;-76
2023/03/31 07:13:33;;;;;;;6.53;2.13;;;;;;;;;;5008524;28;20018;-75
2023/03/31 07:15:59;;;;;;;5.45;1.77;;;;;;;;;;5008731;28;20109;-76
2023/03/31 07:18:31;;;;;;;6.20;1.67;;;;;;;;;;4993672;28;20124;-78
2023/03/31 07:20:58;;;;;;;3.35;1.25;;;;;;;;;;5007745;28;20026;-77
2023/03/31 07:23:24;;;;;;;9.10;1.92;;;;;;;;;;5010763;28;20038;-81
2023/03/31 07:25:50;;;;;;;4.93;1.70;;;;;;;;;;5002446;28;20030;-76
2023/03/31 07:28:16;;;;;;;6.25;1.45;;;;;;;;;;4997006;28;20103;-75
2023/03/31 07:30:42;;;;;;;6.72;1.80;;;;;;;;;;4986324;28;20498;-78
2023/03/31 07:33:09;;;;;;;7.50;1.85;;;;;;;;;;5003068;28;20026;-76
2023/03/31 07:35:37;;;;;;;5.65;1.98;;;;;;;;;;4994338;28;20541;-77
2023/03/31 07:38:03;;;;;;;4.80;1.77;;;;;;;;;;5006159;28;20041;-76
2023/03/31 07:40:29;;;;;;;6.10;1.42;;;;;;;;;;5007627;28;20030;-77
2023/03/31 07:42:56;;;;;;;5.78;1.73;;;;;;;;;;5006549;28;20460;-76
2023/03/31 07:45:23;;;;;;;4.68;1.63;;;;;;;;;;5008409;28;20418;-77
2023/03/31 07:47:49;;;;;;;7.93;2.13;;;;;;;;;;5007369;28;20063;-76
2023/03/31 07:50:15;;;;;;;8.02;2.80;;;;;;;;;;5008230;28;20117;-76
2023/03/31 07:52:42;;;;;;;6.28;1.80;;;;;;;;;;5007818;28;20040;-77
2023/03/31 07:55:08;;;;;;;6.95;1.75;;;;;;;;;;5003374;28;20353;-77
2023/03/31 07:57:35;;;;;;;6.20;2.03;;;;;;;;;;4994921;28;20363;-76
2023/03/31 08:00:06;;;;;;;4.70;2.33;;;;;;;;;;4990411;28;20124;-77
2023/03/31 08:02:32;;;;;;;8.20;2.38;;;;;;;;;;4992599;28;20546;-76
2023/03/31 08:04:58;;;;;;;6.88;1.85;;;;;;;;;;4989324;28;20044;-76
2023/03/31 08:07:26;;;;;;;8.55;2.40;;;;;;;;;;5007420;28;20022;-76
2023/03/31 08:09:52;;;;;;;10.10;2.42;;;;;;;;;;5011194;28;20022;-76
2023/03/31 08:12:18;;;;;;;5.90;2.00;;;;;;;;;;5011252;28;20074;-76
2023/03/31 08:14:44;;;;;;;7.35;2.28;;;;;;;;;;5011415;28;20105;-76
2023/03/31 08:17:10;;;;;;;4.95;1.90;;;;;;;;;;5010551;28;20078;-76
2023/03/31 08:19:36;;;;;;;8.10;2.30;;;;;;;;;;5011066;28;20032;-76
2023/03/31 08:22:02;;;;;;;6.35;2.00;;;;;;;;;;5011437;28;20030;-76
2023/03/31 08:24:29;;;;;;;9.60;2.10;;;;;;;;;;4996810;28;20030;-76
2023/03/31 08:26:55;;;;;;;8.68;2.47;;;;;;;;;;4991863;28;20118;-76
2023/03/31 08:29:21;;;;;;;9.85;2.00;;;;;;;;;;5010360;28;20455;-76
2023/03/31 08:31:47;;;;;;;8.00;2.00;;;;;;;;;;5010801;28;20034;-76
2023/03/31 08:34:13;;;;;;;10.13;2.10;;;;;;;;;;5010949;28;20030;-77
2023/03/31 08:36:40;;;;;;;7.47;2.70;;;;;;;;;;5011487;28;20033;-77
2023/03/31 08:39:06;;;;;;;8.50;2.35;;;;;;;;;;5013986;28;20081;-81
2023/03/31 08:41:38;;;;;;;6.43;2.05;;;;;;;;;;5029301;28;20021;-79
2023/03/31 08:44:06;;;;;;;10.20;2.35;;;;;;;;;;5029503;28;20071;-78
2023/03/31 08:46:34;;;;;;;8.80;2.17;;;;;;;;;;5020641;28;20395;-77
2023/03/31 08:49:01;;;;;;;12.18;2.72;;;;;;;;;;5009972;28;21260;-76
2023/03/31 08:51:28;;;;;;;7.18;2.05;;;;;;;;;;5010964;28;20018;-76
2023/03/31 08:54:04;;;;;;;7.78;2.25;;;;;;;;;;5011059;28;20155;-78
2023/03/31 08:56:33;;;;;;;5.05;1.98;;;;;;;;;;5010449;28;20116;-76
2023/03/31 08:59:01;;;;;;;8.30;2.42;;;;;;;;;;5009826;28;20014;-76
2023/03/31 09:01:42;;;;;;;9.95;2.13;;;;;;;;;;5010510;28;20029;-77
2023/03/31 09:04:11;;;;;;;7.63;2.20;;;;;;;;;;5010979;28;20111;-78
2023/03/31 09:06:40;;;;;;;5.35;2.00;;;;;;;;;;5008467;28;20123;-76
2023/03/31 09:09:09;;;;;;;9.18;1.92;;;;;;;;;;4993168;28;20083;-75
2023/03/31 09:11:43;;;;;;;8.30;1.70;;;;;;;;;;5010076;28;20174;-77
2023/03/31 09:14:28;;;;;;;4.53;1.73;;;;;;;;;;5010263;28;20054;-77
2023/03/31 09:17:07;;;;;;;4.45;1.30;;;;;;;;;;5009408;28;20022;-74
2023/03/31 09:20:00;;;;;;;4.65;1.63;;;;;;;;;;5010017;28;20159;-76
2023/03/31 09:22:34;;;;;;;5.22;1.52;;;;;;;;;;5009738;28;20402;-75
2023/03/31 09:25:03;;;;;;;8.27;2.45;;;;;;;;;;5010460;28;20483;-75
2023/03/31 09:27:31;;;;;;;8.18;1.75;;;;;;;;;;5009362;28;20336;-78
2023/03/31 09:30:24;;;;;;;5.65;1.63;;;;;;;;;;5009980;28;20022;-76
2023/03/31 09:33:10;;;;;;;4.07;1.00;;;;;;;;;;5009142;28;20523;-76
2023/03/31 09:35:36;;;;;;;5.40;1.85;;;;;;;;;;5009665;28;20023;-76
2023/03/31 09:38:02;;;;;;;4.75;1.10;;;;;;;;;;5009335;28;20480;-76
2023/03/31 09:40:28;;;;;;;5.20;1.50;;;;;;;;;;5010055;28;20480;-75
2023/03/31 09:43:07;;;;;;;5.18;1.27;;;;;;;;;;5009973;28;20026;-77
2023/03/31 09:45:34;;;;;;;3.55;1.15;;;;;;;;;;5010068;28;20033;-77
2023/03/31 09:48:05;;;;;;;3.15;1.30;;;;;;;;;;4991471;28;20026;-79
2023/03/31 09:50:42;;;;;;;4.65;1.40;;;;;;;;;;5009805;28;20040;-75
2023/03/31 09:53:15;;;;;;;4.38;1.42;;;;;;;;;;5009688;28;20034;-76
2023/03/31 09:55:46;;;;;;;4.18;1.40;;;;;;;;;;5009419;28;20104;-76
2023/03/31 09:58:12;;;;;;;;;;;;;;;;;;5009329;28;20022;-79
2023/03/31 10:00:40;;;;;;;5.97;1.70;;;;;;;;;;5094279;28;20382;-77
2023/03/31 10:03:06;;;;;;;5.15;1.77;;;;;;;;;;5009515;28;20035;-79
2023/03/31 10:05:32;;;;;;;3.20;1.10;;;;;;;;;;5002423;28;20464;-76
2023/03/31 10:08:11;;;;;;;3.75;1.27;;;;;;;;;;4994702;28;20038;-76
2023/03/31 10:10:37;;;;;;;4.40;1.30;;;;;;;;;;4989885;28;20034;-78
2023/03/31 10:13:08;;;;;;;4.85;1.45;;;;;;;;;;5008941;28;20498;-77
2023/03/31 10:15:34;;;;;;;;;;;;;;;;;;5010010;28;20018;-77
2023/03/31 10:18:00;;;;;;;4.35;1.20;;;;;;;;;;5008826;28;19928;-75
2023/03/31 10:20:36;;;;;;;4.35;2.13;;;;;;;;;;5009260;28;20038;-75
2023/03/31 10:23:04;;;;;;;2.42;1.02;;;;;;;;;;5009314;28;20021;-77
2023/03/31 10:25:32;;;;;;;3.35;0.80;;;;;;;;;;5009192;28;20433;-76
2023/03/31 10:27:58;;;;;;;4.72;1.50;;;;;;;;;;5008465;28;20040;-77
2023/03/31 10:30:25;;;;;;;3.63;1.40;;;;;;;;;;5008795;28;20109;-77
2023/03/31 10:32:51;;;;;;;3.70;1.27;;;;;;;;;;5009206;28;20038;-77
2023/03/31 10:35:31;;;;;;;4.03;1.42;;;;;;;;;;4991356;28;20071;-77
2023/03/31 10:37:58;;;;;;;3.85;1.65;;;;;;;;;;4998216;28;20021;-76
2023/03/31 10:40:26;;;;;;;3.45;0.93;;;;;;;;;;5003415;28;20030;-76
2023/03/31 10:43:01;;;;;;;2.55;1.05;;;;;;;;;;5008713;28;20390;-77
2023/03/31 10:45:29;;;;;;;1.60;0.85;;;;;;;;;;5008813;28;20368;-76
2023/03/31 10:47:56;;;;;;;3.88;1.40;;;;;;;;;;5008368;28;20042;-77
2023/03/31 10:50:26;;;;;;;3.83;1.30;;;;;;;;;;5009037;28;20032;-76
2023/03/31 10:52:52;;;;;;;2.33;1.30;;;;;;;;;;5008823;28;20022;-77
2023/03/31 10:55:23;;;;;;;2.63;1.52;;;;;;;;;;5008912;28;20033;-77
2023/03/31 10:57:54;;;;;;;2.45;1.58;;;;;;;;;;5007877;28;20510;-75
2023/03/31 11:00:38;;;;;;;4.18;1.52;;;;;;;;;;4990742;28;20026;-77
2023/03/31 11:03:16;;;;;;;6.28;1.45;;;;;;;;;;4995356;28;20042;-80
2023/03/31 11:05:42;;;;;;;1.67;1.15;;;;;;;;;;4988072;28;20023;-81
2023/03/31 11:08:11;;;;;;;4.45;1.80;;;;;;;;;;4988339;28;20030;-83
2023/03/31 11:10:37;;;;;;;2.75;1.35;;;;;;;;;;4970636;28;20072;-78
2023/03/31 11:13:26;;;;;;;3.38;1.73;;;;;;;;;;4987221;28;20023;-78
2023/03/31 11:16:07;;;;;;;4.30;1.75;;;;;;;;;;4988380;28;20027;-79
2023/03/31 11:18:36;;;;;;;4.75;1.80;;;;;;;;;;4987827;28;20071;-79
2023/03/31 11:21:08;;;;;;;3.35;1.75;;;;;;;;;;4989084;28;20026;-78
2023/03/31 11:23:41;;;;;;;5.82;1.73;;;;;;;;;;4989397;28;20030;-79
2023/03/31 11:26:10;;;;;;;2.60;1.67;;;;;;;;;;4989577;28;20071;-79
2023/03/31 11:28:48;;;;;;;3.35;1.55;;;;;;;;;;4989360;28;20041;-78
2023/03/31 11:31:33;;;;;;;3.85;2.17;;;;;;;;;;4990753;28;20035;-81
2023/03/31 11:33:59;;;;;;;2.08;1.65;;;;;;;;;;4995122;28;20033;-80
2023/03/31 11:36:48;;;;;;;3.75;1.80;;;;;;;;;;4995385;28;20035;-79
2023/03/31 11:39:23;;;;;;;3.97;2.00;;;;;;;;;;4994375;28;20472;-78
2023/03/31 11:41:50;;;;;;;3.42;2.13;;;;;;;;;;4993501;28;20048;-81
2023/03/31 11:44:18;;;;;;;4.55;2.05;;;;;;;;;;4993383;28;20031;-79
2023/03/31 11:46:47;;;;;;;3.33;1.83;;;;;;;;;;4997767;28;20019;-77
2023/03/31 11:49:16;;;;;;;2.92;1.55;;;;;;;;;;5011944;28;20373;-81
2023/03/31 11:52:04;;;;;;;3.80;1.98;;;;;;;;;;4998708;28;20040;-77
2023/03/31 11:54:30;;;;;;;3.97;1.95;;;;;;;;;;5010374;28;20026;-79
2023/03/31 11:56:57;;;;;;;5.40;2.33;;;;;;;;;;5008925;28;20137;-79
2023/03/31 11:59:26;;;;;;;4.03;2.38;;;;;;;;;;5005192;28;20395;-77
2023/03/31 12:02:11;;;;;;;2.88;1.75;;;;;;;;;;5008480;28;20022;-78
2023/03/31 12:04:42;;;;;;;5.15;1.95;;;;;;;;;;5007486;28;20058;-79
2023/03/31 12:07:11;;;;;;;2.83;1.95;;;;;;;;;;5005786;28;20025;-78
2023/03/31 12:10:07;;;;;;;5.03;2.05;;;;;;;;;;5005754;28;20509;-78
2023/03/31 12:12:39;;;;;;;4.82;2.90;;;;;;;;;;5011371;28;20034;-79
2023/03/31 12:15:24;;;;;;;4.32;1.80;;;;;;;;;;5011216;28;20033;-78
2023/03/31 12:18:02;;;;;;;3.92;1.95;;;;;;;;;;5009542;28;20395;-80
2023/03/31 12:20:33;;;;;;;4.57;2.33;;;;;;;;;;5011825;28;20038;-79
2023/03/31 12:22:59;;;;;;;;;;;;;;;;;;4994320;28;20415;-79
2023/03/31 12:25:28;;;;;;;4.40;2.38;;;;;;;;;;5008305;28;20000;-78
2023/03/31 12:27:55;;;;;;;6.80;1.98;;;;;;;;;;5008820;28;20030;-81
2023/03/31 12:30:37;;;;;;;5.50;2.20;;;;;;;;;;5009298;28;20036;-77
2023/03/31 12:33:11;;;;;;;3.72;2.20;;;;;;;;;;4990694;28;20499;-77
2023/03/31 12:35:55;;;;;;;4.57;2.55;;;;;;;;;;5010201;28;20030;-79
2023/03/31 12:38:30;;;;;;;5.30;2.47;;;;;;;;;;5008953;28;20030;-79
2023/03/31 12:41:11;;;;;;;6.25;2.60;;;;;;;;;;5011708;28;20430;-79
2023/03/31 12:43:55;;;;;;;8.48;2.90;;;;;;;;;;5011190;28;20036;-81
2023/03/31 12:46:33;;;;;;;5.00;2.42;;;;;;;;;;5012294;28;20038;-80
2023/03/31 12:49:18;;;;;;;4.60;2.78;;;;;;;;;;5009980;28;20030;-79
2023/03/31 12:52:02;;;;;;;5.22;2.40;;;;;;;;;;5011603;28;20022;-79
2023/03/31 12:54:50;;;;;;;3.80;2.13;;;;;;;;;;5015373;28;20026;-79
2023/03/31 12:57:22;;;;;;;5.47;2.50;;;;;;;;;;5015243;28;20103;-78
2023/03/31 13:00:11;;;;;;;6.20;2.50;;;;;;;;;;5016264;28;20029;-79
2023/03/31 13:02:38;;;;;;;5.72;2.53;;;;;;;;;;5015707;28;20037;-81
2023/03/31 13:05:22;;;;;;;5.80;2.53;;;;;;;;;;5017253;28;20058;-78
2023/03/31 13:07:48;;;;;;;4.47;2.05;;;;;;;;;;5013733;28;20030;-77
2023/03/31 13:10:17;;;;;;;3.65;2.53;;;;;;;;;;5015479;28;20030;-79
2023/03/31 13:12:56;;;;;;;3.58;2.13;;;;;;;;;;5000775;28;20030;-81
2023/03/31 13:15:23;;;;;;;5.03;2.38;;;;;;;;;;5019858;28;20079;-79
2023/03/31 13:17:56;;;;;;;3.63;2.20;;;;;;;;;;5001353;28;20022;-82
2023/03/31 13:20:31;;;;;;;4.07;2.40;;;;;;;;;;5019917;28;20052;-78
2023/03/31 13:23:06;;;;;;;3.45;2.28;;;;;;;;;;5017150;28;20030;-79
2023/03/31 13:25:35;;;;;;;4.88;2.17;;;;;;;;;;5002408;28;20090;-80
2023/03/31 13:28:09;;;;;;;3.80;2.25;;;;;;;;;;5018993;28;20030;-77
2023/03/31 13:30:35;;;;;;;6.50;1.80;;;;;;;;;;5017065;28;20045;-77
2023/03/31 13:33:11;;;;;;;4.40;2.05;;;;;;;;;;5014031;28;20030;-79
2023/03/31 13:35:39;;;;;;;1.90;1.50;;;;;;;;;;5013620;28;20037;-78
2023/03/31 13:38:14;;;;;;;2.88;1.40;;;;;;;;;;5012719;28;20022;-80
2023/03/31 13:40:55;;;;;;;2.65;1.45;;;;;;;;;;5013780;28;20036;-78
2023/03/31 13:43:34;;;;;;;2.08;1.50;;;;;;;;;;5011324;28;20026;-77
2023/03/31 13:46:03;;;;;;;4.43;1.27;;;;;;;;;;5010353;28;20032;-78
2023/03/31 13:48:42;;;;;;;3.50;1.58;;;;;;;;;;5009924;28;20026;-79
2023/03/31 13:51:14;;;;;;;3.40;1.40;;;;;;;;;;5013034;28;20476;-80
2023/03/31 13:54:00;;;;;;;3.35;1.70;;;;;;;;;;5024946;28;20030;-83
2023/03/31 13:56:43;;;;;;;2.28;1.20;;;;;;;;;;5030360;28;20018;-82
2023/03/31 13:59:12;;;;;;;4.28;2.30;;;;;;;;;;5030132;28;20090;-82
2023/03/31 14:01:53;;;;;;;2.85;1.27;;;;;;;;;;5016534;28;20400;-78
2023/03/31 14:04:35;;;;;;;1.45;0.85;;;;;;;;;;5010688;28;20022;-80
2023/03/31 14:07:09;;;;;;;2.05;1.08;;;;;;;;;;5011225;28;20432;-80
2023/03/31 14:09:36;;;;;;;5.03;1.75;;;;;;;;;;5010898;28;20041;-79
2023/03/31 14:12:19;;;;;;;1.33;0.82;;;;;;;;;;4993376;28;20018;-79
2023/03/31 14:14:45;;;;;;;2.35;1.20;;;;;;;;;;5011179;28;20049;-83
2023/03/31 14:17:11;;;;;;;2.03;1.48;;;;;;;;;;5015854;28;20014;-79
2023/03/31 14:19:49;;;;;;;5.05;1.65;;;;;;;;;;5011852;28;20117;-80
2023/03/31 14:22:30;;;;;;;1.77;1.17;;;;;;;;;;5012820;28;20025;-81
2023/03/31 14:24:59;;;;;;;4.83;1.33;;;;;;;;;;5010857;28;20411;-78
2023/03/31 14:27:40;;;;;;;3.13;1.20;;;;;;;;;;5008767;28;20283;-79
2023/03/31 14:30:13;;;;;;;2.70;1.25;;;;;;;;;;4991369;28;20030;-79
2023/03/31 14:32:48;;;;;;;1.92;1.17;;;;;;;;;;5008633;28;20406;-78
2023/03/31 14:35:27;;;;;;;2.08;1.15;;;;;;;;;;5008754;28;20101;-80
2023/03/31 14:37:54;;;;;;;1.65;1.10;;;;;;;;;;5008721;28;20061;-79
2023/03/31 14:40:20;;;;;;;2.17;0.90;;;;;;;;;;5007204;28;20036;-80
2023/03/31 14:42:49;;;;;;;2.70;1.23;;;;;;;;;;5010272;28;20185;-80
2023/03/31 14:45:20;;;;;;;2.15;1.10;;;;;;;;;;5010042;28;20022;-78
2023/03/31 14:48:03;;;;;;;2.13;0.88;;;;;;;;;;5009289;28;20076;-79
2023/03/31 14:50:31;;;;;;;2.75;1.00;;;;;;;;;;5009966;28;20029;-79
2023/03/31 14:52:58;;;;;;;3.20;1.33;;;;;;;;;;4992511;28;20026;-79
2023/03/31 14:55:26;;;;;;;2.92;1.17;;;;;;;;;;5009855;28;20065;-81
2023/03/31 14:57:52;;;;;;;2.63;0.77;;;;;;;;;;5009178;28;20026;-78
2023/03/31 15:00:23;;;;;;;2.17;0.60;;;;;;;;;;5009583;28;20036;-79